Monument Pass, CO

6:34 PM MST on December 17, 2017 (GMT -0700)
Monument Pass

Weather History for KMNH - March, 2013

Change the Weather History Date:

Tuesday, March 5, 2013

  Actual Average Record
Temperature  
Mean Temperature 21 °F -  
Max Temperature 39 °F - 59 °F (2009)
Min Temperature 3 °F - 1 °F (2015)
Degree Days  
Heating Degree Days 44    
Month to date heating degree days  
Cooling Degree Days 0    
Month to date cooling degree days  
Moisture  
Dew Point 16 °F    
Average Humidity 76    
Maximum Humidity 100    
Minimum Humidity 52    
Precipitation  
Precipitation 0.00 in - 0.09 in (2004)
Sea Level Pressure  
Sea Level Pressure 30.14 in    
Wind  
Wind Speed 9 mph (SSW)    
Max Wind Speed 21 mph    
Max Gust Speed 25 mph    
Visibility 10 miles    
Events      
T = Trace of Precipitation, MM = Missing Value Source: NWS Daily Summary

Daily Weather History Graph

Daily Weather History Graph

Search for Another Location

Airport or City:

Trip Planner

Search our weather history database for the weather conditions in past years. The results will help you decide how hot, cold, wet, or windy it might be!

Date:

Astronomy

Mar. 05, 2013 Rise Set
Actual Time 6:24 AM MST 5:55 PM MST
Civil Twilight 5:58 AM MST 6:22 PM MST
Nautical Twilight 5:27 AM MST 6:53 PM MST
Astronomical Twilight 4:56 AM MST 7:24 PM MST
Moon 1:37 AM MST (3/5) 11:39 AM MST (3/5)
Length of Visible Light 12h 24m
Length of Day
11h 30m
Last Quarter, 40% of the Moon is Illuminated
Mar 5
Last Quarter
Mar 11
New
Mar 19
First Quarter
Mar 27
Full
Apr 2
Last Quarter

Hourly Weather History & Observations

Time (MST) Temp. Windchill Dew Point Humidity Pressure Visibility Wind Dir Wind Speed Gust Speed Precip Events Conditions
12:13 AM 5.0 °F - 1.4 °F 85% 30.15 in 10.0 mi Calm Calm - N/A   Clear
12:34 AM 3.2 °F -7.8 °F -0.4 °F 85% 30.15 in 10.0 mi SSW 5.8 mph - N/A   Clear
12:54 AM 3.2 °F -7.8 °F -0.4 °F 85% 30.15 in 10.0 mi SSW 5.8 mph - N/A   Clear
1:09 AM 5.0 °F -6.9 °F 1.4 °F 85% 30.15 in 10.0 mi SSW 6.9 mph - N/A   Clear
1:34 AM 3.2 °F -9.1 °F -0.4 °F 85% 30.16 in 10.0 mi SSW 6.9 mph - N/A   Clear
1:54 AM 3.2 °F -7.8 °F -0.4 °F 85% 30.15 in 10.0 mi SSW 5.8 mph - N/A   Clear
2:14 AM 5.0 °F -9.1 °F 1.4 °F 85% 30.15 in 10.0 mi SSW 9.2 mph - N/A   Clear
2:34 AM 3.2 °F -10.3 °F 1.4 °F 92% 30.14 in 10.0 mi South 8.1 mph - N/A   Clear
2:54 AM 6.8 °F -5.9 °F 5.0 °F 92% 30.13 in 10.0 mi South 8.1 mph - N/A   Clear
3:14 AM 8.6 °F -4.7 °F 5.0 °F 85% 30.13 in 10.0 mi South 9.2 mph - N/A   Clear
3:34 AM 5.0 °F -6.9 °F 1.4 °F 85% 30.13 in 10.0 mi South 6.9 mph - N/A   Clear
3:47 AM 5.0 °F -8.1 °F 5.0 °F 100% 30.13 in 10.0 mi SSW 8.1 mph - N/A   Clear
4:09 AM 6.8 °F -5.9 °F 5.0 °F 92% 30.13 in 10.0 mi SSW 8.1 mph - N/A   Clear
4:34 AM 5.0 °F -8.1 °F 3.2 °F 92% 30.15 in 10.0 mi SSW 8.1 mph - N/A   Clear
4:54 AM 8.6 °F -3.7 °F 5.0 °F 85% 30.15 in 10.0 mi SSW 8.1 mph - N/A   Clear
5:14 AM 8.6 °F -2.6 °F 5.0 °F 85% 30.15 in 10.0 mi SSW 6.9 mph - N/A   Clear
5:30 AM 6.8 °F -4.8 °F 3.2 °F 85% 30.15 in 10.0 mi SSW 6.9 mph - N/A   Clear
6:11 AM 6.8 °F -6.9 °F 5.0 °F 92% 30.17 in 10.0 mi South 9.2 mph - N/A   Clear
6:34 AM 10.4 °F -4.1 °F 8.6 °F 92% 30.17 in 10.0 mi South 11.5 mph - N/A   Clear
6:54 AM 10.4 °F -4.8 °F 8.6 °F 92% 30.18 in 10.0 mi SSW 12.7 mph - N/A   Clear
7:14 AM 14.0 °F -0.2 °F 10.4 °F 86% 30.18 in 10.0 mi South 12.7 mph - N/A   Clear
7:34 AM 14.0 °F 0.5 °F 12.2 °F 93% 30.18 in 10.0 mi South 11.5 mph - N/A   Clear
7:54 AM 17.6 °F 5.0 °F 12.2 °F 79% 30.18 in 10.0 mi South 11.5 mph - N/A   Clear
8:10 AM 19.4 °F 6.6 °F 12.2 °F 74% 30.19 in 10.0 mi South 12.7 mph - N/A   Clear
8:30 AM 19.4 °F 8.6 °F 12.2 °F 74% 30.18 in 10.0 mi South 9.2 mph - N/A   Clear
8:53 AM 23.0 °F 10.6 °F 14.0 °F 68% 30.19 in 10.0 mi South 13.8 mph - N/A   Clear
9:14 AM 24.8 °F 11.9 °F 14.0 °F 64% 30.18 in 10.0 mi South 16.1 mph - N/A   Clear
9:29 AM 26.6 °F 15.7 °F 15.8 °F 64% 30.18 in 10.0 mi South 12.7 mph - N/A   Clear
9:54 AM 30.2 °F 21.3 °F 17.6 °F 60% 30.17 in 10.0 mi South 10.4 mph - N/A   Clear
10:14 AM 30.2 °F 21.3 °F 17.6 °F 60% 30.17 in 10.0 mi SSW 10.4 mph - N/A   Clear
10:34 AM 32.0 °F 23.6 °F 17.6 °F 55% 30.17 in 10.0 mi South 10.4 mph - N/A   Clear
10:53 AM 32.0 °F 23.6 °F 19.4 °F 60% 30.16 in 10.0 mi South 10.4 mph - N/A   Clear
11:14 AM 32.0 °F 24.8 °F 19.4 °F 60% 30.16 in 10.0 mi SSW 8.1 mph - N/A   Clear
11:29 AM 33.8 °F 25.3 °F 19.4 °F 56% 30.15 in 10.0 mi SSW 11.5 mph - N/A   Clear
11:49 AM 33.8 °F 25.3 °F 19.4 °F 56% 30.15 in 10.0 mi South 11.5 mph - N/A   Clear
12:14 PM 33.8 °F 25.3 °F 19.4 °F 56% 30.15 in 10.0 mi SSW 11.5 mph 17.3 mph N/A   Clear
12:34 PM 32.0 °F 22.5 °F 19.4 °F 60% 30.15 in 10.0 mi SSW 12.7 mph - N/A   Clear
12:54 PM 33.8 °F 27.0 °F 23.0 °F 65% 30.14 in 10.0 mi SSW 8.1 mph - N/A   Clear
1:08 PM 35.6 °F 28.6 °F 23.0 °F 60% 30.13 in 10.0 mi SSW 9.2 mph - N/A   Clear
1:34 PM 37.4 °F 31.4 °F 24.8 °F 60% 30.13 in 10.0 mi SSW 8.1 mph - N/A   Clear
1:54 PM 37.4 °F 32.8 °F 24.8 °F 60% 30.13 in 10.0 mi SSW 5.8 mph - N/A   Clear
2:14 PM 37.4 °F 33.8 °F 24.8 °F 60% 30.13 in 10.0 mi SSW 4.6 mph - N/A   Clear
2:34 PM 37.4 °F 32.8 °F 24.8 °F 60% 30.13 in 10.0 mi SSW 5.8 mph - N/A   Clear
2:54 PM 39.2 °F 34.2 °F 26.6 °F 61% 30.13 in 10.0 mi WSW 6.9 mph - N/A   Clear
3:14 PM 39.2 °F 35.9 °F 26.6 °F 61% 30.13 in 10.0 mi WSW 4.6 mph - N/A   Clear
3:34 PM 39.2 °F 37.0 °F 23.0 °F 52% 30.13 in 10.0 mi WSW 3.5 mph - N/A   Clear
3:49 PM 37.4 °F - 24.8 °F 60% 30.13 in 10.0 mi Calm Calm - N/A   Clear
4:14 PM 37.4 °F 32.1 °F 24.8 °F 60% 30.13 in 10.0 mi SW 6.9 mph - N/A   Clear
4:34 PM 35.6 °F 29.2 °F 23.0 °F 60% 30.14 in 10.0 mi SW 8.1 mph - N/A   Clear
4:54 PM 32.0 °F 24.2 °F 23.0 °F 69% 30.13 in 10.0 mi SSW 9.2 mph - N/A   Clear
5:14 PM 32.0 °F 24.2 °F 23.0 °F 69% 30.12 in 10.0 mi SSW 9.2 mph - N/A   Clear
5:33 PM 30.2 °F 20.8 °F 23.0 °F 75% 30.13 in 10.0 mi SSW 11.5 mph - N/A   Clear
5:54 PM 28.4 °F 18.5 °F 23.0 °F 80% 30.13 in 10.0 mi SSW 11.5 mph - N/A   Clear
6:14 PM 28.4 °F 18.5 °F 21.2 °F 74% 30.13 in 10.0 mi SSW 11.5 mph - N/A   Clear
6:34 PM 26.6 °F 16.2 °F 21.2 °F 80% 30.13 in 10.0 mi SSW 11.5 mph - N/A   Clear
6:50 PM 26.6 °F 15.2 °F 21.2 °F 80% 30.13 in 10.0 mi SSW 13.8 mph - N/A   Clear
7:13 PM 26.6 °F 13.4 °F 21.2 °F 80% 30.12 in 10.0 mi SSW 18.4 mph - N/A   Clear
7:34 PM 24.8 °F 12.4 °F 19.4 °F 80% 30.12 in 10.0 mi South 15.0 mph - N/A   Clear
7:51 PM 24.8 °F 12.9 °F 21.2 °F 86% 30.12 in 10.0 mi SSW 13.8 mph - N/A   Clear
8:10 PM 24.8 °F 11.5 °F 21.2 °F 86% 30.11 in 10.0 mi South 17.3 mph - N/A   Clear
8:33 PM 24.8 °F 10.3 °F 19.4 °F 80% 30.12 in 10.0 mi South 20.7 mph - N/A   Clear
8:53 PM 24.8 °F 10.7 °F 21.2 °F 86% 30.12 in 10.0 mi South 19.6 mph - N/A   Clear
9:14 PM 24.8 °F 11.9 °F 21.2 °F 86% 30.12 in 10.0 mi SSW 16.1 mph - N/A   Clear
9:30 PM 24.8 °F 12.4 °F 21.2 °F 86% 30.12 in 10.0 mi SSW 15.0 mph - N/A   Clear
9:53 PM 24.8 °F 12.4 °F 21.2 °F 86% 30.11 in 10.0 mi SSW 15.0 mph - N/A   Clear
10:14 PM 26.6 °F 13.8 °F 21.2 °F 80% 30.11 in 10.0 mi SSW 17.3 mph - N/A   Clear
10:31 PM 26.6 °F 15.2 °F 21.2 °F 80% 30.11 in 10.0 mi SSW 13.8 mph 25.3 mph N/A   Clear
10:51 PM 26.6 °F 14.3 °F 21.2 °F 80% 30.10 in 10.0 mi South 16.1 mph - N/A   Clear
11:13 PM 26.6 °F 13.8 °F 23.0 °F 86% 30.10 in 10.0 mi South 17.3 mph - N/A   Clear
11:34 PM 26.6 °F 16.2 °F 23.0 °F 86% 30.09 in 10.0 mi SSW 11.5 mph - N/A   Clear
11:54 PM 26.6 °F 15.7 °F 21.2 °F 80% 30.08 in 10.0 mi SSW 12.7 mph - N/A   Clear